Time;durP1;ratioP1;P1;durP2;ratioP2;P2;SDS_P1;SDS_P2;PMS_P1;PMS_P2;Temp;Humidity;BMP_temperature;BMP_pressure;BME280_temperature;BME280_humidity;BME280_pressure;Samples;Min_cycle;Max_cycle;Signal;HPM_P1;HPM_P2
2021/01/28 00:00:37;;;;;;;26.35;13.13;;;;;;;3.96;97.69;99768.19;4995386;28;20109;-75
2021/01/28 00:03:05;;;;;;;23.83;13.48;;;;;;;3.93;97.51;99770.00;4995377;28;20054;-75
2021/01/28 00:05:34;;;;;;;31.65;13.98;;;;;;;3.92;97.37;99755.06;4995769;28;20340;-74
2021/01/28 00:08:02;;;;;;;27.27;13.85;;;;;;;4.01;97.35;99743.28;4994277;28;20057;-75
2021/01/28 00:10:29;;;;;;;23.02;13.50;;;;;;;3.98;97.24;99739.91;4995601;28;20508;-76
2021/01/28 00:12:56;;;;;;;25.13;12.75;;;;;;;4.01;97.41;99737.13;4995074;28;20528;-75
2021/01/28 00:15:26;;;;;;;23.75;13.15;;;;;;;4.03;96.94;99730.03;4995369;28;20046;-75
2021/01/28 00:17:52;;;;;;;21.65;12.82;;;;;;;4.08;96.45;99725.41;4995177;28;20400;-76
2021/01/28 00:20:22;;;;;;;22.23;12.88;;;;;;;4.06;96.77;99729.91;4995338;28;20050;-75
2021/01/28 00:22:49;;;;;;;22.67;12.75;;;;;;;4.02;96.99;99723.88;4995093;28;20344;-75
2021/01/28 00:25:17;;;;;;;26.20;13.00;;;;;;;3.99;96.67;99718.75;4995115;28;20054;-75
2021/01/28 00:27:45;;;;;;;25.77;13.63;;;;;;;3.97;96.80;99720.56;4997719;28;20054;-76
2021/01/28 00:30:16;;;;;;;29.23;14.27;;;;;;;3.97;96.67;99702.06;4998687;28;20058;-76
2021/01/28 00:32:42;;;;;;;23.08;12.50;;;;;;;4.05;96.54;99710.53;4998816;28;20050;-76
2021/01/28 00:35:11;;;;;;;18.85;12.15;;;;;;;3.98;96.81;99695.03;4997600;28;20141;-76
2021/01/28 00:37:38;;;;;;;22.40;13.00;;;;;;;4.04;97.11;99705.34;4998833;28;20458;-76
2021/01/28 00:40:05;;;;;;;19.98;12.85;;;;;;;4.03;96.75;99688.63;4998515;28;20055;-76
2021/01/28 00:42:33;;;;;;;17.67;12.45;;;;;;;4.14;96.27;99697.91;4998492;28;20042;-76
2021/01/28 00:45:00;;;;;;;23.35;12.85;;;;;;;4.12;96.60;99690.03;4997482;28;20057;-76
2021/01/28 00:47:28;;;;;;;18.70;11.27;;;;;;;4.20;95.84;99685.28;4998549;28;20053;-75
2021/01/28 00:49:54;;;;;;;16.83;10.60;;;;;;;4.23;96.10;99684.28;4998117;28;20137;-76
2021/01/28 00:52:20;;;;;;;16.38;11.38;;;;;;;4.12;95.99;99671.53;4999519;28;20054;-76
2021/01/28 00:54:47;;;;;;;18.42;11.45;;;;;;;4.14;96.12;99663.56;4998975;28;20046;-76
2021/01/28 00:57:13;;;;;;;18.83;10.93;;;;;;;4.08;95.90;99644.41;4997293;28;20444;-76
2021/01/28 00:59:39;;;;;;;20.63;9.88;;;;;;;4.18;96.02;99657.19;4998147;28;20046;-76
2021/01/28 01:02:05;;;;;;;15.60;10.25;;;;;;;4.19;96.11;99665.06;4998381;28;20097;-76
2021/01/28 01:04:32;;;;;;;12.70;9.05;;;;;;;4.23;95.86;99657.88;4999156;28;20050;-76
2021/01/28 01:06:58;;;;;;;16.35;9.77;;;;;;;4.21;96.17;99660.56;4998795;28;20322;-76
2021/01/28 01:09:26;;;;;;;15.00;10.02;;;;;;;4.24;96.29;99661.38;4998322;28;20058;-76
2021/01/28 01:11:54;;;;;;;12.40;9.23;;;;;;;4.20;96.56;99664.13;4997966;28;20056;-75
2021/01/28 01:14:21;;;;;;;15.00;9.65;;;;;;;4.26;96.26;99652.47;4996750;28;20077;-76
2021/01/28 01:16:48;;;;;;;12.98;9.25;;;;;;;4.19;95.92;99636.00;4997743;28;20061;-76
2021/01/28 01:19:15;;;;;;;12.40;9.43;;;;;;;4.27;96.19;99653.31;4998015;28;20065;-76
2021/01/28 01:21:41;;;;;;;13.48;9.77;;;;;;;4.17;96.29;99635.22;4997450;28;20050;-75
2021/01/28 01:24:07;;;;;;;11.25;9.20;;;;;;;4.30;96.35;99643.47;4997699;28;20050;-76
2021/01/28 01:26:34;;;;;;;13.02;8.88;;;;;;;4.23;96.23;99631.44;4996542;28;20053;-76
2021/01/28 01:29:00;;;;;;;13.32;10.02;;;;;;;4.26;96.53;99630.47;4998184;28;20077;-75
2021/01/28 01:31:27;;;;;;;10.93;8.90;;;;;;;4.29;96.35;99615.34;4996867;28;20050;-74
2021/01/28 01:33:53;;;;;;;10.77;8.57;;;;;;;4.38;96.72;99624.66;4997280;28;20069;-75
2021/01/28 01:36:20;;;;;;;10.85;8.98;;;;;;;4.36;96.41;99613.28;4997491;28;20372;-75
2021/01/28 01:38:47;;;;;;;11.50;8.68;;;;;;;4.33;96.62;99601.09;4996585;28;20326;-75
2021/01/28 01:41:13;;;;;;;10.80;8.50;;;;;;;4.36;96.67;99602.69;4997233;28;20050;-75
2021/01/28 01:43:39;;;;;;;9.20;7.38;;;;;;;4.35;96.74;99595.72;4996387;28;20046;-75
2021/01/28 01:46:10;;;;;;;9.48;8.38;;;;;;;4.33;97.05;99579.06;4997642;28;20058;-75
2021/01/28 01:48:39;;;;;;;;;;;;;;;4.35;96.88;99582.50;4997753;28;20058;-75
2021/01/28 01:51:23;;;;;;;8.82;6.75;;;;;;;4.35;97.11;99580.72;4997017;28;19922;-76
2021/01/28 01:53:56;;;;;;;10.00;8.05;;;;;;;4.30;97.37;99579.22;4996847;28;20061;-75
2021/01/28 01:56:31;;;;;;;9.40;7.75;;;;;;;4.31;97.58;99560.63;4997430;28;20054;-75
2021/01/28 01:59:11;;;;;;;8.07;7.13;;;;;;;4.24;97.41;99547.78;4996012;28;20062;-76
2021/01/28 02:01:48;;;;;;;10.80;8.10;;;;;;;4.32;97.63;99561.50;4996071;28;20093;-75
2021/01/28 02:04:17;;;;;;;7.90;7.10;;;;;;;4.40;97.53;99559.38;4996688;28;20105;-76
2021/01/28 02:06:49;;;;;;;8.27;6.82;;;;;;;4.36;97.24;99541.94;4997185;28;20400;-75
2021/01/28 02:09:16;;;;;;;9.63;6.88;;;;;;;4.39;97.83;99551.50;4997021;28;20058;-76
2021/01/28 02:11:42;;;;;;;7.00;6.22;;;;;;;4.40;97.78;99545.31;4996833;28;20797;-76
2021/01/28 02:14:13;;;;;;;7.95;7.03;;;;;;;4.39;97.60;99543.59;4996064;28;20061;-75
2021/01/28 02:16:48;;;;;;;5.30;4.80;;;;;;;4.43;97.51;99539.88;4996949;28;20058;-75
2021/01/28 02:19:59;;;;;;;8.38;5.90;;;;;;;4.44;97.63;99529.25;4995424;28;20054;-76
2021/01/28 02:22:52;;;;;;;7.40;6.15;;;;;;;4.41;97.86;99533.81;4995977;28;20053;-76
2021/01/28 02:25:33;;;;;;;6.75;5.88;;;;;;;4.38;97.94;99521.59;4996777;28;20058;-75
2021/01/28 02:28:02;;;;;;;6.18;5.50;;;;;;;4.35;97.95;99493.53;4996743;28;20181;-75
2021/01/28 02:30:31;;;;;;;6.68;5.68;;;;;;;4.46;97.65;99490.41;4996509;28;20073;-75
2021/01/28 02:32:58;;;;;;;7.40;5.25;;;;;;;4.47;97.57;99481.53;4996446;28;20057;-75
2021/01/28 02:35:26;;;;;;;7.22;5.15;;;;;;;4.41;98.09;99473.06;4995229;28;20046;-75
2021/01/28 02:37:55;;;;;;;6.03;5.30;;;;;;;4.46;98.03;99471.91;4996558;28;20076;-75
2021/01/28 02:40:25;;;;;;;6.85;5.80;;;;;;;4.45;98.07;99466.69;4996352;28;20061;-76
2021/01/28 02:42:52;;;;;;;6.50;5.38;;;;;;;4.45;98.29;99448.19;4996599;28;20056;-76
2021/01/28 02:45:24;;;;;;;8.23;6.25;;;;;;;4.48;98.07;99446.25;4996521;28;20070;-76
2021/01/28 02:47:55;;;;;;;8.00;5.60;;;;;;;4.47;98.00;99441.91;4996266;28;20061;-75
2021/01/28 02:50:23;;;;;;;7.05;6.10;;;;;;;4.43;98.18;99432.41;4996667;28;20061;-76
2021/01/28 02:52:54;;;;;;;6.90;5.68;;;;;;;4.48;97.73;99434.84;4996808;28;20053;-75
2021/01/28 02:55:20;;;;;;;7.32;6.60;;;;;;;4.48;97.99;99429.56;4998100;28;20054;-76
2021/01/28 02:57:47;;;;;;;7.47;6.65;;;;;;;4.44;98.05;99423.56;4996442;28;20472;-76
2021/01/28 03:00:19;;;;;;;7.82;6.57;;;;;;;4.57;97.69;99438.84;4996567;28;20061;-75
2021/01/28 03:02:45;;;;;;;8.45;6.90;;;;;;;4.45;97.98;99419.13;4997586;28;20051;-77
2021/01/28 03:05:12;;;;;;;9.02;6.85;;;;;;;4.49;97.74;99420.69;4997814;28;20061;-76
2021/01/28 03:07:38;;;;;;;8.80;6.45;;;;;;;4.49;97.91;99428.63;4995646;28;20054;-76
2021/01/28 03:10:05;;;;;;;11.27;7.68;;;;;;;4.43;98.32;99419.22;4978978;28;20062;-76
2021/01/28 03:12:31;;;;;;;7.88;7.07;;;;;;;4.46;98.28;99411.13;4994991;28;20054;-76
2021/01/28 03:14:57;;;;;;;9.07;7.20;;;;;;;4.47;98.36;99406.72;4995818;28;20061;-76
2021/01/28 03:17:24;;;;;;;8.30;6.50;;;;;;;4.48;97.63;99385.47;4996076;28;20050;-76
2021/01/28 03:19:51;;;;;;;8.63;6.00;;;;;;;4.56;97.61;99400.09;4994888;28;20054;-76
2021/01/28 03:22:17;;;;;;;7.65;6.63;;;;;;;4.59;97.75;99381.47;4995735;28;20336;-76
2021/01/28 03:24:43;;;;;;;7.32;6.18;;;;;;;4.61;97.52;99380.47;4994645;28;20077;-76
2021/01/28 03:27:10;;;;;;;6.88;5.90;;;;;;;4.52;98.05;99361.56;4994799;28;20089;-76
2021/01/28 03:29:36;;;;;;;8.50;5.95;;;;;;;4.68;97.63;99373.06;4995608;28;20071;-76
2021/01/28 03:32:03;;;;;;;5.80;5.20;;;;;;;4.61;97.62;99366.38;4995552;28;20046;-76
2021/01/28 03:34:30;;;;;;;6.28;5.05;;;;;;;4.59;98.06;99365.59;4995677;28;20077;-76
2021/01/28 03:36:56;;;;;;;5.55;4.85;;;;;;;4.56;97.72;99363.09;4995786;28;20059;-76
2021/01/28 03:39:23;;;;;;;7.35;5.07;;;;;;;4.54;97.87;99357.91;4994471;28;20058;-77
2021/01/28 03:41:49;;;;;;;5.18;4.68;;;;;;;4.55;98.04;99348.19;4995875;28;20042;-76
2021/01/28 03:44:15;;;;;;;5.38;4.75;;;;;;;4.53;98.07;99342.13;4995643;28;20050;-76
2021/01/28 03:46:42;;;;;;;4.68;3.63;;;;;;;4.52;98.32;99340.41;4995557;28;20121;-76
2021/01/28 03:49:08;;;;;;;6.28;3.85;;;;;;;4.59;98.19;99349.75;5027178;28;20054;-76
2021/01/28 03:51:38;;;;;;;4.65;3.45;;;;;;;4.53;98.35;99344.75;4995501;28;20417;-76
2021/01/28 03:54:04;;;;;;;4.47;3.90;;;;;;;4.53;98.46;99345.59;4994452;28;20060;-76
2021/01/28 03:56:31;;;;;;;4.35;3.53;;;;;;;4.55;98.45;99349.03;4995636;28;20065;-76
2021/01/28 03:58:57;;;;;;;4.82;3.80;;;;;;;4.57;98.54;99343.69;4995464;28;20050;-76
2021/01/28 04:01:24;;;;;;;4.63;3.50;;;;;;;4.57;98.68;99343.69;4996901;28;20144;-76
2021/01/28 04:03:50;;;;;;;3.88;3.42;;;;;;;4.59;98.21;99336.53;4999367;28;20076;-76
2021/01/28 04:06:16;;;;;;;4.68;3.50;;;;;;;4.60;98.34;99336.47;4998344;28;20065;-76
2021/01/28 04:08:42;;;;;;;3.90;3.53;;;;;;;4.61;98.46;99327.59;4998123;28;20333;-76
2021/01/28 04:11:11;;;;;;;4.20;3.58;;;;;;;4.60;98.06;99317.97;4998968;28;20061;-76
2021/01/28 04:13:37;;;;;;;4.32;3.63;;;;;;;4.40;98.38;99283.75;4999212;28;20439;-76
2021/01/28 04:16:04;;;;;;;5.38;3.50;;;;;;;4.60;98.24;99325.91;4998925;28;20447;-76
2021/01/28 04:18:30;;;;;;;6.18;3.40;;;;;;;4.60;98.12;99317.09;4999067;28;20050;-76
2021/01/28 04:20:56;;;;;;;5.55;3.20;;;;;;;4.62;98.37;99304.66;4999117;28;20057;-76
2021/01/28 04:23:22;;;;;;;4.38;3.40;;;;;;;4.56;98.76;99289.97;4998937;28;20726;-76
2021/01/28 04:25:49;;;;;;;3.97;3.47;;;;;;;4.67;97.83;99286.78;4998652;28;20061;-76
2021/01/28 04:28:15;;;;;;;4.25;3.40;;;;;;;4.60;98.24;99280.97;4999001;28;20046;-75
2021/01/28 04:30:41;;;;;;;4.30;3.17;;;;;;;4.64;97.99;99272.88;4981471;28;20428;-75
2021/01/28 04:33:09;;;;;;;6.22;3.53;;;;;;;4.59;97.96;99251.97;4981725;28;20054;-75
2021/01/28 04:35:36;;;;;;;5.95;3.17;;;;;;;4.72;97.36;99263.63;4998611;28;20050;-75
2021/01/28 04:38:03;;;;;;;7.65;3.72;;;;;;;4.52;97.65;99229.41;4998758;28;20193;-75
2021/01/28 04:40:43;;;;;;;4.05;3.33;;;;;;;4.54;97.21;99240.75;4998442;28;20396;-75
2021/01/28 04:43:26;;;;;;;4.00;3.20;;;;;;;4.43;97.63;99214.88;4998534;28;20414;-75
2021/01/28 04:45:55;;;;;;;3.10;2.80;;;;;;;4.52;97.75;99229.41;4997180;28;20444;-75
2021/01/28 04:48:28;;;;;;;4.70;3.45;;;;;;;4.43;98.28;99215.75;4997695;28;20050;-75
2021/01/28 04:50:56;;;;;;;5.53;3.10;;;;;;;4.59;97.64;99229.00;4998128;28;20058;-76
2021/01/28 04:53:41;;;;;;;2.92;2.63;;;;;;;4.56;97.78;99215.09;4997344;28;20050;-75
2021/01/28 04:56:12;;;;;;;3.53;3.17;;;;;;;4.41;97.72;99196.47;4998154;28;20433;-76
2021/01/28 04:58:38;;;;;;;3.35;2.78;;;;;;;4.47;98.05;99208.53;4998517;28;20066;-75
2021/01/28 05:01:05;;;;;;;3.30;2.60;;;;;;;4.44;98.07;99198.97;4998015;28;20096;-75
2021/01/28 05:03:46;;;;;;;2.80;2.60;;;;;;;4.52;97.06;99187.97;4996931;28;20058;-75
2021/01/28 05:06:13;;;;;;;;;;;;;;;4.48;96.99;99174.06;4981662;28;20058;-75
2021/01/28 05:08:39;;;;;;;2.60;2.22;;;;;;;4.47;97.06;99179.47;4998177;28;19976;-76
2021/01/28 05:11:20;;;;;;;4.35;2.65;;;;;;;4.46;97.80;99168.03;4997832;28;20058;-76
2021/01/28 05:13:47;;;;;;;;;;;;;;;4.49;97.83;99159.09;4998146;28;20100;-75
2021/01/28 05:16:31;;;;;;;5.43;2.38;;;;;;;4.45;97.32;99154.88;4997945;28;19929;-75
2021/01/28 05:19:01;;;;;;;2.53;2.00;;;;;;;4.47;97.51;99148.59;4998011;28;20061;-75
2021/01/28 05:21:37;;;;;;;2.35;2.05;;;;;;;4.36;97.63;99121.84;4997685;28;20061;-75
2021/01/28 05:24:19;;;;;;;2.17;1.92;;;;;;;4.45;97.53;99116.13;4997507;28;20436;-76
2021/01/28 05:26:46;;;;;;;5.43;2.03;;;;;;;4.51;97.68;99116.72;4997650;28;20053;-75
2021/01/28 05:29:14;;;;;;;4.32;1.95;;;;;;;4.53;97.75;99120.97;4996440;28;20475;-75
2021/01/28 05:31:40;;;;;;;4.80;1.90;;;;;;;4.54;97.11;99114.78;4997609;28;20069;-75
2021/01/28 05:34:09;;;;;;;3.08;1.70;;;;;;;4.53;96.87;99107.75;4997421;28;20433;-75
2021/01/28 05:36:43;;;;;;;4.55;1.67;;;;;;;4.54;97.29;99101.56;4997281;28;20046;-75
2021/01/28 05:39:37;;;;;;;2.35;1.33;;;;;;;4.51;97.93;99091.16;4997661;28;20050;-75
2021/01/28 05:42:26;;;;;;;6.18;2.33;;;;;;;4.48;97.93;99081.59;4997511;28;20058;-76
2021/01/28 05:44:55;;;;;;;3.10;1.63;;;;;;;4.48;98.14;99071.03;4997263;28;20136;-75
2021/01/28 05:47:33;;;;;;;1.92;1.40;;;;;;;4.47;97.77;99053.47;5012424;28;20056;-75
2021/01/28 05:50:14;;;;;;;4.05;1.50;;;;;;;4.55;98.09;99057.47;5016599;28;20383;-75
2021/01/28 05:52:40;;;;;;;4.47;1.52;;;;;;;4.55;97.97;99062.75;5016642;28;20336;-75
2021/01/28 05:55:09;;;;;;;4.00;1.50;;;;;;;4.56;98.33;99040.69;5015874;28;20068;-74
2021/01/28 05:57:50;;;;;;;1.73;1.52;;;;;;;4.65;97.26;99042.84;5016905;28;20053;-74
2021/01/28 06:00:29;;;;;;;4.43;1.40;;;;;;;4.56;98.49;99038.91;5014312;28;20065;-74
2021/01/28 06:02:57;;;;;;;2.78;1.50;;;;;;;4.56;98.40;99024.81;4997086;28;20050;-74
2021/01/28 06:05:48;;;;;;;1.75;1.40;;;;;;;4.65;98.11;99021.69;4996950;28;20108;-74
2021/01/28 06:08:18;;;;;;;7.95;1.73;;;;;;;4.66;97.71;99010.19;4996185;28;20065;-75
2021/01/28 06:11:11;;;;;;;2.33;1.27;;;;;;;4.62;98.03;99013.94;4997130;28;20053;-74
2021/01/28 06:14:02;;;;;;;1.65;1.27;;;;;;;4.61;97.89;99013.09;4997445;28;20428;-74
2021/01/28 06:17:24;;;;;;;3.10;1.33;;;;;;;4.65;98.48;98999.69;5007184;28;20045;-77
2021/01/28 06:19:55;;;;;;;4.53;1.55;;;;;;;4.58;98.59;98986.81;5000764;28;20058;-73
2021/01/28 06:22:38;;;;;;;2.83;1.88;;;;;;;4.64;98.71;98993.56;5006211;28;20050;-73
2021/01/28 06:25:16;;;;;;;2.63;1.30;;;;;;;4.65;98.51;98986.47;5010710;28;20049;-74
2021/01/28 06:28:01;;;;;;;3.55;1.35;;;;;;;4.73;98.49;98974.53;5014924;28;20085;-74
2021/01/28 06:30:45;;;;;;;3.22;1.40;;;;;;;4.73;98.62;98963.97;5013092;28;20428;-74
2021/01/28 06:33:26;;;;;;;1.90;1.23;;;;;;;4.78;97.82;98960.22;5014218;28;20050;-74
2021/01/28 06:36:09;;;;;;;1.70;1.20;;;;;;;4.78;97.94;98952.31;5011056;28;20108;-74
2021/01/28 06:38:58;;;;;;;2.88;1.17;;;;;;;4.78;97.95;98933.78;4998094;28;20060;-74
2021/01/28 06:41:31;;;;;;;2.15;0.98;;;;;;;4.83;97.90;98918.50;4994847;28;20050;-73
2021/01/28 06:44:04;;;;;;;2.40;0.82;;;;;;;4.89;97.45;98907.56;4994531;28;20046;-73
2021/01/28 06:47:09;;;;;;;3.55;1.20;;;;;;;4.79;97.13;98887.91;4996333;28;20507;-73
2021/01/28 06:49:59;;;;;;;5.20;1.10;;;;;;;4.75;97.73;98900.44;5000225;28;20060;-74
2021/01/28 06:52:50;;;;;;;5.70;1.20;;;;;;;4.78;97.59;98887.03;5030389;28;20046;-75
2021/01/28 06:55:34;;;;;;;3.80;1.55;;;;;;;4.79;97.54;98872.06;4996426;28;20047;-74
2021/01/28 06:58:16;;;;;;;1.10;0.82;;;;;;;4.78;97.54;98852.69;4996376;28;20058;-74
2021/01/28 07:00:50;;;;;;;5.13;0.80;;;;;;;4.78;97.90;98844.75;5007130;28;20069;-73
2021/01/28 07:03:32;;;;;;;6.05;1.20;;;;;;;4.65;97.89;98828.75;5018956;28;20054;-74
2021/01/28 07:06:13;;;;;;;4.03;1.17;;;;;;;4.77;98.10;98837.75;5015884;28;20597;-73
2021/01/28 07:09:08;;;;;;;4.00;0.90;;;;;;;4.76;97.93;98826.31;5008452;28;20060;-74
2021/01/28 07:11:38;;;;;;;1.92;0.98;;;;;;;4.84;97.92;98835.59;5002468;28;20045;-71
2021/01/28 07:14:06;;;;;;;2.40;1.20;;;;;;;4.79;98.53;98827.94;5002062;28;20043;-71
2021/01/28 07:16:56;;;;;;;6.65;1.20;;;;;;;4.80;98.53;98816.44;5001429;28;20105;-72
2021/01/28 07:19:27;;;;;;;4.03;1.20;;;;;;;4.70;98.64;98792.34;4997829;28;20078;-72
2021/01/28 07:21:54;;;;;;;;;;;;;;;4.91;97.87;98804.38;4994550;28;20051;-71
2021/01/28 07:24:23;;;;;;;4.00;0.70;;;;;;;4.93;97.53;98797.19;4995045;28;19980;-72
2021/01/28 07:27:00;;;;;;;3.92;1.55;;;;;;;4.93;97.44;98791.91;4974601;28;20058;-73
2021/01/28 07:29:30;;;;;;;2.55;0.90;;;;;;;4.95;97.61;98801.44;4987507;28;20060;-78
2021/01/28 07:32:04;;;;;;;2.88;0.77;;;;;;;5.00;97.18;98791.47;5003291;28;20054;-73
2021/01/28 07:34:31;;;;;;;3.42;0.80;;;;;;;4.99;97.78;98787.13;5014112;28;20141;-73
2021/01/28 07:37:18;;;;;;;5.00;1.02;;;;;;;4.99;97.98;98794.19;5016016;28;20491;-73
2021/01/28 07:39:45;;;;;;;1.23;0.90;;;;;;;4.97;97.82;98777.56;5003355;28;20054;-73
2021/01/28 07:42:46;;;;;;;0.80;0.70;;;;;;;5.07;97.77;98783.16;4982489;28;20063;-73
2021/01/28 07:45:31;;;;;;;1.90;0.65;;;;;;;5.09;97.57;98778.63;4997342;28;20399;-73
2021/01/28 07:47:59;;;;;;;3.40;0.98;;;;;;;5.04;97.99;98773.63;4997815;28;20073;-72
2021/01/28 07:50:36;;;;;;;4.82;0.80;;;;;;;5.02;98.43;98773.69;4980513;28;20150;-73
2021/01/28 07:53:48;;;;;;;2.72;0.93;;;;;;;5.05;98.09;98770.03;4997646;28;20117;-73
2021/01/28 07:56:36;;;;;;;5.10;1.08;;;;;;;5.10;98.54;98760.03;4997537;28;20054;-73
2021/01/28 07:59:16;;;;;;;4.35;1.13;;;;;;;5.07;98.52;98751.44;4998911;28;20065;-73
2021/01/28 08:01:46;;;;;;;3.17;0.95;;;;;;;5.13;98.67;98748.41;4998267;28;20069;-72
2021/01/28 08:04:22;;;;;;;2.60;0.70;;;;;;;5.13;98.68;98754.53;4999163;28;20191;-72
2021/01/28 08:06:49;;;;;;;2.15;0.88;;;;;;;5.15;98.47;98747.38;4998539;28;20112;-73
2021/01/28 08:09:16;;;;;;;1.73;1.00;;;;;;;5.18;98.65;98741.03;4999276;28;20052;-73
2021/01/28 08:11:51;;;;;;;3.40;1.08;;;;;;;5.18;98.94;98743.69;4999131;28;20058;-73
2021/01/28 08:14:22;;;;;;;2.20;1.15;;;;;;;5.02;99.05;98718.16;4998852;28;20050;-73
2021/01/28 08:16:52;;;;;;;1.15;0.73;;;;;;;5.20;98.82;98738.28;4999124;28;20069;-72
2021/01/28 08:19:22;;;;;;;2.33;0.75;;;;;;;5.17;98.92;98734.03;4998662;28;20086;-73
2021/01/28 08:21:49;;;;;;;2.13;0.88;;;;;;;5.19;99.79;98733.94;4999174;28;20058;-73
2021/01/28 08:24:21;;;;;;;3.20;1.00;;;;;;;5.21;99.74;98724.09;4997446;28;20051;-73
2021/01/28 08:26:48;;;;;;;2.38;1.00;;;;;;;5.27;99.46;98721.94;4998800;28;20053;-73
2021/01/28 08:29:21;;;;;;;3.80;0.73;;;;;;;5.32;99.58;98721.66;4998427;28;20440;-73
2021/01/28 08:31:49;;;;;;;2.03;0.82;;;;;;;5.41;99.12;98707.84;4998717;28;20129;-73
2021/01/28 08:34:22;;;;;;;4.10;0.93;;;;;;;5.39;100.00;98706.25;4998373;28;20543;-72
2021/01/28 08:36:52;;;;;;;5.20;1.00;;;;;;;5.38;100.00;98692.16;4998455;28;20058;-73
2021/01/28 08:39:23;;;;;;;2.28;0.85;;;;;;;5.49;100.00;98707.38;4998494;28;20065;-73
2021/01/28 08:42:17;;;;;;;2.78;0.85;;;;;;;5.49;100.00;98702.06;4998345;28;20054;-72
2021/01/28 08:44:46;;;;;;;2.30;1.00;;;;;;;5.56;100.00;98698.09;4998262;28;20150;-72
2021/01/28 08:47:22;;;;;;;3.28;0.90;;;;;;;5.62;100.00;98685.41;4997792;28;20054;-72
2021/01/28 08:50:07;;;;;;;1.92;0.70;;;;;;;5.67;100.00;98665.63;4998030;28;20503;-72
2021/01/28 08:52:35;;;;;;;1.88;0.52;;;;;;;5.74;100.00;98658.16;4997911;28;20125;-72
2021/01/28 08:55:10;;;;;;;2.10;0.63;;;;;;;5.90;100.00;98646.53;4998201;28;20054;-72
2021/01/28 08:57:37;;;;;;;2.00;0.38;;;;;;;6.08;100.00;98649.78;4998321;28;20086;-72
2021/01/28 09:00:08;;;;;;;0.80;0.40;;;;;;;6.02;100.00;98637.81;4998114;28;20130;-72
2021/01/28 09:02:38;;;;;;;2.25;0.40;;;;;;;6.28;100.00;98632.56;4998313;28;20670;-72
2021/01/28 09:05:34;;;;;;;1.00;0.40;;;;;;;6.38;100.00;98638.94;4997852;28;20096;-72
2021/01/28 09:08:03;;;;;;;1.75;0.43;;;;;;;6.55;100.00;98628.97;4997846;28;20050;-72
2021/01/28 09:10:42;;;;;;;0.82;0.30;;;;;;;6.63;100.00;98629.28;4997731;28;20151;-72
2021/01/28 09:13:16;;;;;;;2.15;0.40;;;;;;;6.64;99.98;98606.25;4997770;28;20125;-73
2021/01/28 09:15:43;;;;;;;1.48;0.40;;;;;;;6.77;100.00;98620.34;4997976;28;20054;-73
2021/01/28 09:18:26;;;;;;;3.78;0.30;;;;;;;6.89;100.00;98613.38;4997775;28;20058;-73
2021/01/28 09:21:03;;;;;;;0.22;0.22;;;;;;;6.96;99.82;98629.69;4997807;28;20058;-73
2021/01/28 09:23:29;;;;;;;0.30;0.30;;;;;;;7.02;99.79;98615.97;4997609;28;20516;-72
2021/01/28 09:26:19;;;;;;;1.13;0.35;;;;;;;6.99;99.48;98595.00;4997879;28;20061;-73
2021/01/28 09:28:45;;;;;;;1.05;0.32;;;;;;;7.03;99.93;98619.50;4997785;28;20108;-72
2021/01/28 09:31:28;;;;;;;1.13;0.50;;;;;;;7.09;99.70;98608.44;4997504;28;20047;-72
2021/01/28 09:33:55;;;;;;;0.60;0.25;;;;;;;7.09;99.67;98619.06;4996776;28;20133;-72
2021/01/28 09:36:27;;;;;;;0.47;0.30;;;;;;;7.14;99.99;98619.56;4997235;28;20054;-73
2021/01/28 09:38:59;;;;;;;1.70;0.30;;;;;;;7.20;100.00;98613.81;4997518;28;20054;-73
2021/01/28 09:41:36;;;;;;;0.73;0.57;;;;;;;7.20;99.99;98612.97;4997259;28;20051;-74
2021/01/28 09:44:23;;;;;;;0.68;0.43;;;;;;;7.13;99.84;98599.28;4997511;28;20054;-73
2021/01/28 09:47:03;;;;;;;3.92;0.35;;;;;;;7.38;99.68;98618.75;4997434;28;20105;-73
2021/01/28 09:49:30;;;;;;;1.40;0.50;;;;;;;7.43;99.82;98616.63;4997306;28;20129;-72
2021/01/28 09:52:22;;;;;;;1.38;0.55;;;;;;;7.42;99.53;98620.22;4996841;28;20334;-72
2021/01/28 09:54:59;;;;;;;0.65;0.40;;;;;;;7.42;99.52;98604.28;4997187;28;20050;-72
2021/01/28 09:57:27;;;;;;;2.45;0.60;;;;;;;7.44;99.73;98609.50;4995858;28;20046;-73
2021/01/28 09:59:59;;;;;;;2.42;0.73;;;;;;;7.44;99.77;98620.09;4996437;28;20448;-73
2021/01/28 10:02:47;;;;;;;0.63;0.50;;;;;;;7.43;99.76;98616.63;4996925;28;20058;-73
2021/01/28 10:05:19;;;;;;;3.50;0.60;;;;;;;7.44;99.90;98623.63;4996658;28;20060;-73
2021/01/28 10:07:48;;;;;;;0.85;0.70;;;;;;;7.43;100.00;98611.31;4996738;28;20050;-73
2021/01/28 10:10:20;;;;;;;0.60;0.40;;;;;;;7.45;99.71;98609.38;4996615;28;20046;-73
2021/01/28 10:12:52;;;;;;;1.33;0.70;;;;;;;7.55;99.95;98614.00;4996565;28;20490;-73
2021/01/28 10:15:19;;;;;;;1.03;0.60;;;;;;;7.58;99.90;98619.13;4996783;28;20062;-73
2021/01/28 10:17:45;;;;;;;2.72;1.55;;;;;;;7.54;99.68;98601.69;4996647;28;20066;-73
2021/01/28 10:20:13;;;;;;;0.95;0.77;;;;;;;7.62;100.00;98615.25;4995626;28;20077;-73
2021/01/28 10:22:42;;;;;;;3.33;0.80;;;;;;;7.68;99.93;98617.47;4996639;28;20100;-73
2021/01/28 10:25:13;;;;;;;1.25;0.73;;;;;;;7.72;100.00;98612.75;4995579;28;20054;-73
2021/01/28 10:27:39;;;;;;;1.10;0.70;;;;;;;7.71;100.00;98614.59;4995595;28;20050;-73
2021/01/28 10:30:08;;;;;;;1.08;0.80;;;;;;;7.75;100.00;98596.63;4996288;28;20420;-73
2021/01/28 10:32:34;;;;;;;1.02;0.82;;;;;;;7.79;100.00;98592.75;4996079;28;20046;-74
2021/01/28 10:35:01;;;;;;;1.40;1.00;;;;;;;7.85;100.00;98594.94;4996287;28;20050;-73
2021/01/28 10:37:27;;;;;;;3.47;1.52;;;;;;;7.88;100.00;98594.75;4995294;28;20067;-72
2021/01/28 10:39:53;;;;;;;3.53;1.23;;;;;;;7.87;100.00;98598.38;4996137;28;20396;-72
2021/01/28 10:42:31;;;;;;;3.35;1.45;;;;;;;7.80;100.00;98581.16;4996286;28;20349;-73
2021/01/28 10:44:57;;;;;;;1.58;1.02;;;;;;;7.93;100.00;98581.09;4995941;28;20129;-74
2021/01/28 10:47:24;;;;;;;11.52;1.73;;;;;;;7.99;100.00;98601.03;4995930;28;20054;-73
2021/01/28 10:50:07;;;;;;;6.00;2.20;;;;;;;8.01;100.00;98592.00;4996088;28;20054;-73
2021/01/28 10:52:33;;;;;;;3.15;1.75;;;;;;;8.06;100.00;98582.84;4994769;28;20058;-74
2021/01/28 10:54:59;;;;;;;4.35;1.80;;;;;;;8.10;100.00;98581.63;4978740;28;20050;-72
2021/01/28 10:57:25;;;;;;;2.15;1.50;;;;;;;8.19;100.00;98580.94;4995747;28;20046;-72
2021/01/28 10:59:52;;;;;;;2.65;1.60;;;;;;;8.26;100.00;98573.31;4994334;28;20456;-73
2021/01/28 11:02:18;;;;;;;2.78;1.45;;;;;;;8.28;100.00;98574.03;4995850;28;20113;-75
2021/01/28 11:04:44;;;;;;;2.60;1.35;;;;;;;8.28;100.00;98577.56;4994583;28;20050;-75
2021/01/28 11:07:10;;;;;;;3.65;1.40;;;;;;;8.32;100.00;98574.69;4995682;28;20050;-74
2021/01/28 11:09:36;;;;;;;5.28;1.80;;;;;;;8.29;100.00;98565.13;4995277;28;20058;-73
2021/01/28 11:12:05;;;;;;;2.65;1.38;;;;;;;8.36;100.00;98566.34;4994815;28;20400;-76
2021/01/28 11:14:32;;;;;;;3.55;1.65;;;;;;;8.41;100.00;98564.16;4999846;28;20383;-72
2021/01/28 11:16:58;;;;;;;1.60;1.42;;;;;;;8.41;100.00;98560.66;4996111;28;20101;-74
2021/01/28 11:19:25;;;;;;;2.30;1.45;;;;;;;8.45;100.00;98562.13;4994305;28;20046;-75
2021/01/28 11:21:51;;;;;;;3.17;1.52;;;;;;;8.52;100.00;98565.16;4998740;28;20077;-75
2021/01/28 11:24:17;;;;;;;1.83;1.30;;;;;;;8.58;100.00;98566.50;4995693;28;20050;-77
2021/01/28 11:26:43;;;;;;;2.35;0.90;;;;;;;8.68;100.00;98565.63;4995415;28;20062;-74
2021/01/28 11:29:10;;;;;;;1.35;1.00;;;;;;;8.60;100.00;98540.66;4994360;28;20082;-78
2021/01/28 11:31:36;;;;;;;0.60;0.60;;;;;;;8.83;100.00;98565.41;5001755;28;20081;-78
2021/01/28 11:34:04;;;;;;;0.88;0.50;;;;;;;8.86;100.00;98565.16;4995619;28;20057;-75
2021/01/28 11:36:31;;;;;;;1.65;0.60;;;;;;;8.86;100.00;98572.28;4997631;28;20049;-74
2021/01/28 11:38:57;;;;;;;1.00;0.60;;;;;;;8.80;100.00;98561.19;4995536;28;20050;-74
2021/01/28 11:41:25;;;;;;;3.83;0.60;;;;;;;8.80;100.00;98547.03;4999703;28;20061;-78
2021/01/28 11:43:51;;;;;;;0.73;0.52;;;;;;;8.85;100.00;98559.97;5005174;28;20046;-75
2021/01/28 11:46:17;;;;;;;1.02;0.57;;;;;;;8.91;100.00;98559.47;4997585;28;20459;-71
2021/01/28 11:48:43;;;;;;;0.95;0.50;;;;;;;8.94;100.00;98564.56;5014629;28;20448;-77
2021/01/28 11:51:10;;;;;;;0.55;0.55;;;;;;;8.92;100.00;98554.03;5013570;28;20158;-74
2021/01/28 11:53:38;;;;;;;1.30;0.38;;;;;;;8.99;100.00;98553.53;5001137;28;20070;-76
2021/01/28 11:56:04;;;;;;;2.40;0.50;;;;;;;9.01;100.00;98555.13;4994849;28;20054;-78
2021/01/28 11:58:30;;;;;;;1.33;0.40;;;;;;;8.92;100.00;98532.75;4995213;28;20051;-74
2021/01/28 12:00:56;;;;;;;0.40;0.40;;;;;;;9.08;100.00;98566.97;4994167;28;20057;-76